Time;durP1;ratioP1;P1;durP2;ratioP2;P2;SDS_P1;SDS_P2;PMS_P1;PMS_P2;Temp;Humidity;BMP_temperature;BMP_pressure;BME280_temperature;BME280_humidity;BME280_pressure;Samples;Min_cycle;Max_cycle;Signal;HPM_P1;HPM_P2
2022/11/09 00:01:45;;;;;;;;;;;;;;;;;;5156726;27;20255;-67
2022/11/09 00:04:11;;;;;;;;;;;;;;;;;;5157016;27;19976;-68
2022/11/09 00:06:37;;;;;;;;;;;;;;;;;;5156509;27;19945;-68
2022/11/09 00:09:03;;;;;;;;;;;;;;;;;;5157055;27;19911;-67
2022/11/09 00:11:28;;;;;;;;;;;;;;;;;;5156820;27;19911;-68
2022/11/09 00:13:54;;;;;;;;;;;;;;;;;;5156417;27;20252;-68
2022/11/09 00:16:21;;;;;;;;;;;;;;;;;;5156708;27;19911;-68
2022/11/09 00:18:47;;;;;;;;;;;;;;;;;;5156692;27;19958;-68
2022/11/09 00:26:42;;;;;;;;;;;;;;;;;;5156561;27;19914;-67
2022/11/09 00:29:08;;;;;;;;;;;;;;;;;;5156104;27;19907;-68
2022/11/09 00:31:34;;;;;;;;;;;;;;;;;;5156666;27;19947;-68
2022/11/09 00:34:00;;;;;;;;;;;;;;;;;;5156047;27;19919;-67
2022/11/09 00:36:26;;;;;;;;;;;;;;;;;;5155947;27;19907;-68
2022/11/09 00:38:52;;;;;;;;;;;;;;;;;;5156186;27;19907;-67
2022/11/09 00:41:18;;;;;;;;;;;;;;;;;;5156139;27;20002;-68
2022/11/09 00:43:44;;;;;;;;;;;;;;;;;;5155253;27;19914;-67
2022/11/09 00:46:09;;;;;;;;;;;;;;;;;;5137606;27;19938;-68
2022/11/09 00:48:35;;;;;;;;;;;;;;;;;;5155859;27;19965;-67
2022/11/09 00:51:01;;;;;;;;;;;;;;;;;;5156036;27;20002;-67
2022/11/09 00:53:27;;;;;;;;;;;;;;;;;;5155896;27;19919;-67
2022/11/09 00:55:53;;;;;;;;;;;;;;;;;;5155692;27;19907;-68
2022/11/09 00:58:19;;;;;;;;;;;;;;;;;;5155940;27;19911;-67
2022/11/09 01:00:45;;;;;;;;;;;;;;;;;;5155926;27;19938;-68
2022/11/09 01:03:11;;;;;;;;;;;;;;;;;;5155374;27;20002;-68
2022/11/09 01:05:38;;;;;;;;;;;;;;;;;;5155888;27;19937;-68
2022/11/09 01:08:04;;;;;;;;;;;;;;;;;;5137182;27;19939;-67
2022/11/09 01:10:30;;;;;;;;;;;;;;;;;;5155358;27;19950;-68
2022/11/09 01:12:56;;;;;;;;;;;;;;;;;;5155609;27;19911;-67
2022/11/09 01:15:22;;;;;;;;;;;;;;;;;;5155650;27;19911;-68
2022/11/09 01:17:48;;;;;;;;;;;;;;;;;;5155499;27;19907;-67
2022/11/09 01:20:14;;;;;;;;;;;;;;;;;;5155600;27;19938;-68
2022/11/09 01:22:39;;;;;;;;;;;;;;;;;;5137025;27;19998;-67
2022/11/09 01:25:05;;;;;;;;;;;;;;;;;;5155218;27;20333;-68
2022/11/09 01:27:31;;;;;;;;;;;;;;;;;;5155534;27;20259;-68
2022/11/09 01:29:57;;;;;;;;;;;;;;;;;;5155434;27;20264;-68
2022/11/09 01:32:23;;;;;;;;;;;;;;;;;;5136233;27;20378;-68
2022/11/09 01:34:49;;;;;;;;;;;;;;;;;;5155809;27;20013;-68
2022/11/09 01:37:15;;;;;;;;;;;;;;;;;;5136930;27;19908;-67
2022/11/09 01:39:41;;;;;;;;;;;;;;;;;;5155151;27;19914;-68
2022/11/09 01:42:07;;;;;;;;;;;;;;;;;;5155352;27;19907;-68
2022/11/09 01:44:33;;;;;;;;;;;;;;;;;;5136890;27;19914;-68
2022/11/09 01:46:59;;;;;;;;;;;;;;;;;;5136314;27;19911;-67
2022/11/09 01:49:25;;;;;;;;;;;;;;;;;;5155655;27;19907;-68
2022/11/09 01:51:51;;;;;;;;;;;;;;;;;;5155001;27;19907;-68
2022/11/09 01:54:17;;;;;;;;;;;;;;;;;;5137274;27;19919;-67
2022/11/09 01:56:43;;;;;;;;;;;;;;;;;;5140836;27;19912;-68
2022/11/09 01:59:09;;;;;;;;;;;;;;;;;;5140405;27;19911;-67
2022/11/09 02:01:35;;;;;;;;;;;;;;;;;;5159340;27;19922;-67
2022/11/09 02:04:01;;;;;;;;;;;;;;;;;;5159362;27;19914;-67
2022/11/09 02:06:27;;;;;;;;;;;;;;;;;;5158911;27;19907;-68
2022/11/09 02:08:53;;;;;;;;;;;;;;;;;;5159407;27;19953;-67
2022/11/09 02:11:19;;;;;;;;;;;;;;;;;;5159374;27;19911;-67
2022/11/09 02:13:45;;;;;;;;;;;;;;;;;;5158682;27;19915;-68
2022/11/09 02:16:11;;;;;;;;;;;;;;;;;;5140527;27;19938;-67
2022/11/09 02:18:37;;;;;;;;;;;;;;;;;;5140445;27;19960;-67
2022/11/09 02:21:03;;;;;;;;;;;;;;;;;;5158595;27;19940;-68
2022/11/09 02:23:29;;;;;;;;;;;;;;;;;;5158955;27;19933;-67
2022/11/09 02:25:55;;;;;;;;;;;;;;;;;;5140314;27;20227;-68
2022/11/09 02:28:21;;;;;;;;;;;;;;;;;;5158465;27;20278;-68
2022/11/09 02:30:47;;;;;;;;;;;;;;;;;;5158792;27;20347;-68
2022/11/09 02:33:13;;;;;;;;;;;;;;;;;;5139870;27;20367;-68
2022/11/09 02:35:39;;;;;;;;;;;;;;;;;;5139714;27;19919;-68
2022/11/09 02:38:05;;;;;;;;;;;;;;;;;;5158654;27;19960;-67
2022/11/09 02:40:31;;;;;;;;;;;;;;;;;;5158646;27;20043;-67
2022/11/09 02:42:57;;;;;;;;;;;;;;;;;;5158158;27;19907;-68
2022/11/09 02:45:23;;;;;;;;;;;;;;;;;;5158509;27;19907;-68
2022/11/09 02:47:49;;;;;;;;;;;;;;;;;;5158527;27;20005;-68
2022/11/09 02:50:15;;;;;;;;;;;;;;;;;;5158098;27;19911;-67
2022/11/09 02:52:41;;;;;;;;;;;;;;;;;;5158423;27;19911;-68
2022/11/09 02:55:07;;;;;;;;;;;;;;;;;;5158413;27;19911;-68
2022/11/09 02:57:33;;;;;;;;;;;;;;;;;;5158179;27;19950;-68
2022/11/09 02:59:59;;;;;;;;;;;;;;;;;;5158334;27;19911;-68
2022/11/09 03:02:25;;;;;;;;;;;;;;;;;;5158154;27;19907;-68
2022/11/09 03:04:51;;;;;;;;;;;;;;;;;;5139351;27;19914;-68
2022/11/09 03:07:17;;;;;;;;;;;;;;;;;;5158180;27;19907;-68
2022/11/09 03:09:43;;;;;;;;;;;;;;;;;;5157918;27;19907;-67
2022/11/09 03:12:50;;;;;;;;;;;;;;;;;;5158102;27;20009;-67
2022/11/09 03:14:57;;;;;;;;;;;;;;;;;;5149473;27;19919;-67
2022/11/09 03:17:23;;;;;;;;;;;;;;;;;;5157605;27;20308;-67
2022/11/09 03:19:49;;;;;;;;;;;;;;;;;;5158229;27;19925;-67
2022/11/09 03:22:15;;;;;;;;;;;;;;;;;;5157888;27;20381;-67
2022/11/09 03:24:41;;;;;;;;;;;;;;;;;;5157423;27;19949;-67
2022/11/09 03:27:07;;;;;;;;;;;;;;;;;;5157805;27;19907;-67
2022/11/09 03:29:33;;;;;;;;;;;;;;;;;;5157769;27;19907;-67
2022/11/09 03:31:59;;;;;;;;;;;;;;;;;;5157386;27;19999;-67
2022/11/09 03:34:25;;;;;;;;;;;;;;;;;;5157371;27;19919;-67
2022/11/09 03:36:51;;;;;;;;;;;;;;;;;;5157618;27;19907;-67
2022/11/09 03:39:17;;;;;;;;;;;;;;;;;;5157099;27;19907;-67
2022/11/09 03:41:43;;;;;;;;;;;;;;;;;;5157438;27;20002;-68
2022/11/09 03:44:09;;;;;;;;;;;;;;;;;;5138871;27;19918;-67
2022/11/09 03:46:34;;;;;;;;;;;;;;;;;;5157011;27;19907;-67
2022/11/09 03:49:00;;;;;;;;;;;;;;;;;;5157338;27;19947;-67
2022/11/09 03:51:26;;;;;;;;;;;;;;;;;;5156933;27;19907;-67
2022/11/09 03:53:52;;;;;;;;;;;;;;;;;;5157178;27;19915;-67
2022/11/09 03:56:18;;;;;;;;;;;;;;;;;;5157195;27;19907;-67
2022/11/09 03:58:44;;;;;;;;;;;;;;;;;;5156797;27;19914;-67
2022/11/09 04:01:10;;;;;;;;;;;;;;;;;;5138487;27;19914;-67
2022/11/09 04:03:36;;;;;;;;;;;;;;;;;;5138464;27;19910;-67
2022/11/09 04:06:02;;;;;;;;;;;;;;;;;;5156569;27;19908;-67
2022/11/09 04:08:28;;;;;;;;;;;;;;;;;;5156994;27;19917;-67
2022/11/09 04:10:54;;;;;;;;;;;;;;;;;;5156960;27;19935;-67
2022/11/09 04:13:20;;;;;;;;;;;;;;;;;;5156325;27;19914;-68
2022/11/09 04:15:46;;;;;;;;;;;;;;;;;;5156765;27;19907;-68
2022/11/09 04:18:12;;;;;;;;;;;;;;;;;;5155960;27;20282;-67
2022/11/09 04:20:37;;;;;;;;;;;;;;;;;;5156475;27;20363;-67
2022/11/09 04:23:03;;;;;;;;;;;;;;;;;;5156779;27;20419;-67
2022/11/09 04:25:29;;;;;;;;;;;;;;;;;;5156703;27;19907;-67
2022/11/09 04:27:55;;;;;;;;;;;;;;;;;;5156187;27;19952;-67
2022/11/09 04:30:21;;;;;;;;;;;;;;;;;;5156607;27;20377;-67
2022/11/09 04:32:47;;;;;;;;;;;;;;;;;;5137648;27;20316;-67
2022/11/09 04:35:13;;;;;;;;;;;;;;;;;;5137479;27;19914;-67
2022/11/09 04:37:39;;;;;;;;;;;;;;;;;;5156415;27;19970;-67
2022/11/09 04:40:05;;;;;;;;;;;;;;;;;;5156398;27;19952;-68
2022/11/09 04:42:31;;;;;;;;;;;;;;;;;;5155856;27;19907;-67
2022/11/09 04:44:57;;;;;;;;;;;;;;;;;;5156235;27;20006;-67
2022/11/09 04:47:23;;;;;;;;;;;;;;;;;;5156247;27;19907;-67
2022/11/09 04:49:49;;;;;;;;;;;;;;;;;;5155829;27;19962;-67
2022/11/09 04:52:15;;;;;;;;;;;;;;;;;;5156116;27;19975;-67
2022/11/09 04:54:41;;;;;;;;;;;;;;;;;;5155847;27;19919;-67
2022/11/09 04:57:07;;;;;;;;;;;;;;;;;;5156541;27;19911;-68
2022/11/09 04:59:33;;;;;;;;;;;;;;;;;;5137513;27;20001;-67
2022/11/09 05:01:58;;;;;;;;;;;;;;;;;;5136905;27;19918;-68
2022/11/09 05:04:24;;;;;;;;;;;;;;;;;;5155988;27;19908;-68
2022/11/09 05:06:50;;;;;;;;;;;;;;;;;;5155915;27;19948;-67
2022/11/09 05:09:16;;;;;;;;;;;;;;;;;;5155502;27;19907;-68
2022/11/09 05:11:42;;;;;;;;;;;;;;;;;;5137300;27;19936;-68
2022/11/09 05:14:08;;;;;;;;;;;;;;;;;;5155729;27;19938;-68
2022/11/09 05:16:34;;;;;;;;;;;;;;;;;;5155349;27;20282;-68
2022/11/09 05:19:00;;;;;;;;;;;;;;;;;;5155696;27;19907;-67
2022/11/09 05:26:56;;;;;;;;;;;;;;;;;;5155732;27;19944;-67
2022/11/09 05:29:22;;;;;;;;;;;;;;;;;;5136963;27;20367;-68
2022/11/09 05:31:48;;;;;;;;;;;;;;;;;;5155163;27;19913;-68
2022/11/09 05:34:14;;;;;;;;;;;;;;;;;;5155243;27;19967;-67
2022/11/09 05:36:40;;;;;;;;;;;;;;;;;;5136953;27;19907;-68
2022/11/09 05:39:06;;;;;;;;;;;;;;;;;;5155136;27;19908;-68
2022/11/09 05:41:31;;;;;;;;;;;;;;;;;;5155568;27;20263;-68
2022/11/09 05:43:57;;;;;;;;;;;;;;;;;;5154972;27;19907;-68
2022/11/09 05:46:24;;;;;;;;;;;;;;;;;;5155355;27;19946;-67
2022/11/09 05:48:50;;;;;;;;;;;;;;;;;;5155465;27;19930;-67
2022/11/09 05:51:16;;;;;;;;;;;;;;;;;;5136372;27;20363;-68
2022/11/09 05:53:42;;;;;;;;;;;;;;;;;;5155619;27;20359;-68
2022/11/09 05:56:08;;;;;;;;;;;;;;;;;;5155514;27;19911;-68
2022/11/09 05:58:36;;;;;;;;;;;;;;;;;;5154964;27;20373;-68
2022/11/09 06:01:02;;;;;;;;;;;;;;;;;;5155484;27;19911;-68
2022/11/09 06:03:28;;;;;;;;;;;;;;;;;;5155367;27;19907;-68
2022/11/09 06:05:54;;;;;;;;;;;;;;;;;;5136300;27;19907;-67
2022/11/09 06:08:20;;;;;;;;;;;;;;;;;;5155214;27;19914;-68
2022/11/09 06:10:46;;;;;;;;;;;;;;;;;;5154682;27;19960;-68
2022/11/09 06:13:12;;;;;;;;;;;;;;;;;;5147095;27;20302;-67
2022/11/09 06:15:38;;;;;;;;;;;;;;;;;;5152073;27;20004;-67
2022/11/09 06:18:05;;;;;;;;;;;;;;;;;;5153313;27;20339;-67
2022/11/09 06:20:32;;;;;;;;;;;;;;;;;;5153235;27;19998;-66
2022/11/09 06:22:58;;;;;;;;;;;;;;;;;;5150603;27;20355;-65
2022/11/09 06:25:24;;;;;;;;;;;;;;;;;;5132658;27;19907;-65
2022/11/09 06:27:50;;;;;;;;;;;;;;;;;;5148236;27;20001;-65
2022/11/09 06:30:16;;;;;;;;;;;;;;;;;;5128198;27;19911;-65
2022/11/09 06:32:42;;;;;;;;;;;;;;;;;;5127433;27;20053;-65
2022/11/09 06:35:07;;;;;;;;;;;;;;;;;;5127590;27;19908;-66
2022/11/09 06:37:33;;;;;;;;;;;;;;;;;;5129234;28;19908;-67
2022/11/09 06:40:00;;;;;;;;;;;;;;;;;;5107884;27;19915;-65
2022/11/09 06:42:25;;;;;;;;;;;;;;;;;;5132262;27;19914;-65
2022/11/09 06:44:51;;;;;;;;;;;;;;;;;;5133034;27;19915;-65
2022/11/09 06:47:17;;;;;;;;;;;;;;;;;;5132553;27;19908;-65
2022/11/09 06:49:43;;;;;;;;;;;;;;;;;;5114036;27;19907;-66
2022/11/09 06:52:09;;;;;;;;;;;;;;;;;;5130828;27;19964;-66
2022/11/09 06:54:35;;;;;;;;;;;;;;;;;;5146247;27;19958;-65
2022/11/09 06:57:01;;;;;;;;;;;;;;;;;;5155112;27;19954;-67
2022/11/09 06:59:27;;;;;;;;;;;;;;;;;;5156390;27;19907;-65
2022/11/09 07:01:53;;;;;;;;;;;;;;;;;;5136496;27;19943;-64
2022/11/09 07:04:19;;;;;;;;;;;;;;;;;;5157626;27;19915;-65
2022/11/09 07:06:45;;;;;;;;;;;;;;;;;;5138485;27;19915;-65
2022/11/09 07:09:11;;;;;;;;;;;;;;;;;;5155716;27;19907;-64
2022/11/09 07:11:37;;;;;;;;;;;;;;;;;;5149005;27;20402;-66
2022/11/09 07:14:03;;;;;;;;;;;;;;;;;;5151615;27;20372;-67
2022/11/09 07:16:29;;;;;;;;;;;;;;;;;;5116246;27;19919;-66
2022/11/09 07:18:55;;;;;;;;;;;;;;;;;;5135961;27;19914;-64
2022/11/09 07:21:21;;;;;;;;;;;;;;;;;;5116107;27;19957;-66
2022/11/09 07:23:47;;;;;;;;;;;;;;;;;;5132696;27;19939;-64
2022/11/09 07:26:13;;;;;;;;;;;;;;;;;;5117180;27;19907;-66
2022/11/09 07:28:39;;;;;;;;;;;;;;;;;;5135578;27;19936;-66
2022/11/09 07:31:05;;;;;;;;;;;;;;;;;;5134117;27;20287;-66
2022/11/09 07:33:32;;;;;;;;;;;;;;;;;;5115784;27;19920;-67
2022/11/09 07:35:58;;;;;;;;;;;;;;;;;;5135233;27;20263;-66
2022/11/09 07:38:24;;;;;;;;;;;;;;;;;;5117415;27;19908;-66
2022/11/09 07:40:50;;;;;;;;;;;;;;;;;;5138316;27;19911;-67
2022/11/09 07:43:17;;;;;;;;;;;;;;;;;;5147023;27;19916;-64
2022/11/09 07:45:43;;;;;;;;;;;;;;;;;;5143559;27;20262;-67
2022/11/09 07:48:09;;;;;;;;;;;;;;;;;;5129251;27;19915;-67
2022/11/09 07:50:34;;;;;;;;;;;;;;;;;;5148840;27;19915;-66
2022/11/09 07:53:00;;;;;;;;;;;;;;;;;;5134684;27;20002;-66
2022/11/09 07:55:26;;;;;;;;;;;;;;;;;;5135732;27;19911;-67
2022/11/09 07:57:52;;;;;;;;;;;;;;;;;;5134750;27;20371;-65
2022/11/09 08:00:18;;;;;;;;;;;;;;;;;;5155070;27;20312;-66
2022/11/09 08:02:44;;;;;;;;;;;;;;;;;;5154971;27;19907;-67
2022/11/09 08:05:10;;;;;;;;;;;;;;;;;;5155867;27;19941;-67
2022/11/09 08:07:36;;;;;;;;;;;;;;;;;;5155203;27;19911;-67
2022/11/09 08:10:03;;;;;;;;;;;;;;;;;;5153286;27;19911;-66
2022/11/09 08:12:29;;;;;;;;;;;;;;;;;;5151821;27;20084;-66
2022/11/09 08:14:55;;;;;;;;;;;;;;;;;;5152997;27;20002;-65
2022/11/09 08:17:23;;;;;;;;;;;;;;;;;;5153736;27;19938;-66
2022/11/09 08:19:49;;;;;;;;;;;;;;;;;;5150920;27;19955;-66
2022/11/09 08:22:15;;;;;;;;;;;;;;;;;;5151208;27;20006;-66
2022/11/09 08:24:41;;;;;;;;;;;;;;;;;;5132688;27;19914;-66
2022/11/09 08:27:07;;;;;;;;;;;;;;;;;;5150715;27;19907;-68
2022/11/09 08:29:33;;;;;;;;;;;;;;;;;;5149526;27;19914;-67
2022/11/09 08:31:59;;;;;;;;;;;;;;;;;;5139355;27;20082;-67
2022/11/09 08:34:25;;;;;;;;;;;;;;;;;;5131192;27;19919;-67
2022/11/09 08:36:51;;;;;;;;;;;;;;;;;;5132239;27;19908;-65
2022/11/09 08:39:17;;;;;;;;;;;;;;;;;;5113265;27;20283;-67
2022/11/09 08:41:43;;;;;;;;;;;;;;;;;;5113944;27;20366;-64
2022/11/09 08:44:11;;;;;;;;;;;;;;;;;;5132269;27;20029;-66
2022/11/09 08:46:37;;;;;;;;;;;;;;;;;;5133452;27;20458;-68
2022/11/09 08:49:05;;;;;;;;;;;;;;;;;;5133853;27;20351;-68
2022/11/09 08:51:32;;;;;;;;;;;;;;;;;;5133679;27;19990;-68
2022/11/09 08:53:58;;;;;;;;;;;;;;;;;;5114112;27;19915;-66
2022/11/09 08:56:25;;;;;;;;;;;;;;;;;;5141454;27;19907;-67
2022/11/09 08:58:52;;;;;;;;;;;;;;;;;;5153287;27;19946;-67
2022/11/09 09:01:20;;;;;;;;;;;;;;;;;;5119851;27;19915;-68
2022/11/09 09:03:46;;;;;;;;;;;;;;;;;;5136384;27;19908;-66
2022/11/09 09:06:12;;;;;;;;;;;;;;;;;;5131870;27;19915;-69
2022/11/09 09:08:37;;;;;;;;;;;;;;;;;;5138123;27;19907;-67
2022/11/09 09:11:03;;;;;;;;;;;;;;;;;;5151024;27;19919;-68
2022/11/09 09:13:29;;;;;;;;;;;;;;;;;;5153574;27;19926;-64
2022/11/09 09:15:55;;;;;;;;;;;;;;;;;;5135210;27;20307;-64
2022/11/09 09:18:21;;;;;;;;;;;;;;;;;;5154443;27;19973;-64
2022/11/09 09:20:47;;;;;;;;;;;;;;;;;;5131656;27;19920;-65
2022/11/09 09:23:14;;;;;;;;;;;;;;;;;;5132475;27;20388;-65
2022/11/09 09:25:40;;;;;;;;;;;;;;;;;;5111384;27;19907;-67
2022/11/09 09:28:06;;;;;;;;;;;;;;;;;;5130390;27;19911;-66
2022/11/09 09:30:32;;;;;;;;;;;;;;;;;;5129817;27;19919;-66
2022/11/09 09:32:59;;;;;;;;;;;;;;;;;;5109066;27;20432;-66
2022/11/09 09:35:25;;;;;;;;;;;;;;;;;;5130311;27;19912;-67
2022/11/09 09:37:53;;;;;;;;;;;;;;;;;;5135583;27;20563;-68
2022/11/09 09:40:19;;;;;;;;;;;;;;;;;;5138906;27;19963;-67
2022/11/09 09:42:45;;;;;;;;;;;;;;;;;;5138516;27;20380;-67
2022/11/09 09:45:11;;;;;;;;;;;;;;;;;;5144718;27;19950;-66
2022/11/09 09:47:36;;;;;;;;;;;;;;;;;;5152690;27;20416;-65
2022/11/09 09:50:02;;;;;;;;;;;;;;;;;;5142740;27;20252;-66
2022/11/09 09:52:28;;;;;;;;;;;;;;;;;;5128783;28;19922;-66
2022/11/09 09:54:54;;;;;;;;;;;;;;;;;;5131610;27;20291;-63
2022/11/09 09:57:20;;;;;;;;;;;;;;;;;;5125662;27;19916;-67
2022/11/09 09:59:46;;;;;;;;;;;;;;;;;;5124065;27;20667;-67
2022/11/09 10:02:12;;;;;;;;;;;;;;;;;;5127782;28;19968;-67
2022/11/09 10:04:38;;;;;;;;;;;;;;;;;;5129123;28;19915;-67
2022/11/09 10:08:07;;;;;;;;;;;;;;;;;;5085794;27;19921;-66
2022/11/09 10:10:33;;;;;;;;;;;;;;;;;;5087507;28;20288;-69
2022/11/09 10:12:59;;;;;;;;;;;;;;;;;;5086886;28;19909;-66
2022/11/09 10:15:25;;;;;;;;;;;;;;;;;;5087913;28;19912;-65
2022/11/09 10:18:57;;;;;;;;;;;;;;;;;;5109050;27;20513;-68
2022/11/09 10:23:30;;;;;;;;;;;;;;;;;;5108511;27;19920;-65
2022/11/09 10:25:56;;;;;;;;;;;;;;;;;;5098669;28;20255;-67
2022/11/09 10:28:22;;;;;;;;;;;;;;;;;;5102690;28;19912;-65
2022/11/09 10:30:48;;;;;;;;;;;;;;;;;;5113243;28;20559;-67
2022/11/09 10:33:14;;;;;;;;;;;;;;;;;;5102371;28;19920;-66
2022/11/09 10:35:40;;;;;;;;;;;;;;;;;;5105400;28;19912;-66
2022/11/09 10:38:06;;;;;;;;;;;;;;;;;;5105231;28;19930;-66
2022/11/09 10:40:32;;;;;;;;;;;;;;;;;;5106439;28;19912;-66
2022/11/09 10:42:58;;;;;;;;;;;;;;;;;;5105966;28;19923;-66
2022/11/09 10:50:04;;;;;;;;;;;;;;;;;;5086836;27;19916;-66
2022/11/09 10:52:30;;;;;;;;;;;;;;;;;;5073911;28;19948;-65
2022/11/09 10:54:57;;;;;;;;;;;;;;;;;;5083079;28;20070;-64
2022/11/09 10:57:23;;;;;;;;;;;;;;;;;;5080399;28;19916;-64
2022/11/09 11:01:30;;;;;;;;;;;;;;;;;;5141978;27;19925;-66
2022/11/09 11:04:48;;;;;;;;;;;;;;;;;;4965334;28;19929;-68
2022/11/09 11:07:14;;;;;;;;;;;;;;;;;;4966098;28;19914;-65
2022/11/09 11:09:40;;;;;;;;;;;;;;;;;;4966290;28;19911;-64
2022/11/09 11:12:50;;;;;;;;;;;;;;;;;;5090068;27;19916;-65
2022/11/09 11:15:15;;;;;;;;;;;;;;;;;;5086422;28;19914;-64
2022/11/09 11:17:41;;;;;;;;;;;;;;;;;;5086433;28;20360;-65
2022/11/09 11:20:07;;;;;;;;;;;;;;;;;;5088306;28;19991;-64
2022/11/09 11:22:34;;;;;;;;;;;;;;;;;;5087228;28;19908;-67
2022/11/09 11:25:00;;;;;;;;;;;;;;;;;;5085456;28;20269;-66
2022/11/09 11:27:26;;;;;;;;;;;;;;;;;;5085820;28;19958;-66
2022/11/09 11:29:51;;;;;;;;;;;;;;;;;;5086620;28;19908;-67
2022/11/09 11:33:06;;;;;;;;;;;;;;;;;;5076535;27;19920;-68
2022/11/09 11:36:58;;;;;;;;;;;;;;;;;;5104991;27;19916;-65
2022/11/09 11:40:40;;;;;;;;;;;;;;;;;;5107044;27;19922;-66
2022/11/09 11:45:38;;;;;;;;;;;;;;;;;;5086647;27;19916;-66
2022/11/09 11:48:04;;;;;;;;;;;;;;;;;;5065341;28;19967;-66
2022/11/09 11:52:06;;;;;;;;;;;;;;;;;;5106105;27;19916;-66
2022/11/09 11:54:31;;;;;;;;;;;;;;;;;;5107299;28;19922;-66
2022/11/09 11:56:57;;;;;;;;;;;;;;;;;;5106272;28;19912;-66
2022/11/09 11:59:23;;;;;;;;;;;;;;;;;;5108159;28;20276;-66
2022/11/09 12:01:49;;;;;;;;;;;;;;;;;;5107363;28;19915;-68
2022/11/09 12:07:00;;;;;;;;;;;;;;;;;;5136431;27;19922;-66
2022/11/09 12:09:26;;;;;;;;;;;;;;;;;;5108686;28;20014;-67
2022/11/09 12:11:52;;;;;;;;;;;;;;;;;;5106550;28;19908;-66
2022/11/09 12:14:18;;;;;;;;;;;;;;;;;;5128598;27;19969;-68
2022/11/09 12:17:24;;;;;;;;;;;;;;;;;;5108202;27;19919;-67
2022/11/09 12:19:51;;;;;;;;;;;;;;;;;;5107478;28;20034;-66
2022/11/09 12:24:30;;;;;;;;;;;;;;;;;;5145444;27;19916;-65
2022/11/09 12:26:56;;;;;;;;;;;;;;;;;;5129965;28;20430;-66
2022/11/09 12:29:23;;;;;;;;;;;;;;;;;;5113434;28;19951;-67
2022/11/09 12:33:54;;;;;;;;;;;;;;;;;;5089395;28;19982;-68
2022/11/09 12:36:20;;;;;;;;;;;;;;;;;;5089032;28;19916;-67
2022/11/09 12:38:46;;;;;;;;;;;;;;;;;;5090519;28;20331;-67
2022/11/09 12:41:12;;;;;;;;;;;;;;;;;;5088827;28;19944;-66
2022/11/09 12:44:51;;;;;;;;;;;;;;;;;;5090624;27;19919;-66
2022/11/09 12:47:17;;;;;;;;;;;;;;;;;;5090227;28;19912;-68
2022/11/09 12:49:43;;;;;;;;;;;;;;;;;;5090585;28;19909;-66
2022/11/09 12:52:09;;;;;;;;;;;;;;;;;;5090503;28;19913;-65
2022/11/09 12:54:35;;;;;;;;;;;;;;;;;;5089762;28;19930;-66
2022/11/09 12:57:01;;;;;;;;;;;;;;;;;;5089212;28;19909;-67
2022/11/09 12:59:27;;;;;;;;;;;;;;;;;;5089123;28;19932;-66
2022/11/09 13:01:53;;;;;;;;;;;;;;;;;;5089802;28;19916;-66
2022/11/09 13:04:19;;;;;;;;;;;;;;;;;;5090179;28;20011;-67
2022/11/09 13:09:16;;;;;;;;;;;;;;;;;;5090183;27;19916;-65
2022/11/09 13:11:42;;;;;;;;;;;;;;;;;;5090615;28;20007;-66
2022/11/09 13:14:08;;;;;;;;;;;;;;;;;;5090361;28;20303;-66
2022/11/09 13:16:35;;;;;;;;;;;;;;;;;;5090033;28;19969;-66
2022/11/09 13:19:01;;;;;;;;;;;;;;;;;;5090533;28;20395;-67
2022/11/09 13:21:27;;;;;;;;;;;;;;;;;;5090065;28;19939;-68
2022/11/09 13:23:52;;;;;;;;;;;;;;;;;;5090300;28;19908;-67
2022/11/09 13:26:18;;;;;;;;;;;;;;;;;;5088809;28;19912;-67
2022/11/09 13:28:44;;;;;;;;;;;;;;;;;;5088476;28;20011;-67
2022/11/09 13:31:10;;;;;;;;;;;;;;;;;;5090120;28;19919;-66
2022/11/09 13:33:38;;;;;;;;;;;;;;;;;;5090179;28;19912;-67
2022/11/09 13:36:04;;;;;;;;;;;;;;;;;;5088126;28;19912;-66
2022/11/09 13:38:30;;;;;;;;;;;;;;;;;;5090058;28;19912;-66
2022/11/09 13:40:55;;;;;;;;;;;;;;;;;;5087464;28;20117;-66
2022/11/09 13:43:21;;;;;;;;;;;;;;;;;;5084716;28;19912;-67
2022/11/09 13:45:48;;;;;;;;;;;;;;;;;;5086629;28;19909;-66
2022/11/09 13:48:14;;;;;;;;;;;;;;;;;;5072666;28;19924;-66
2022/11/09 13:50:40;;;;;;;;;;;;;;;;;;5065591;28;20344;-67
2022/11/09 13:53:06;;;;;;;;;;;;;;;;;;5087950;28;19912;-67
2022/11/09 13:55:32;;;;;;;;;;;;;;;;;;5079562;28;20290;-66
2022/11/09 13:57:58;;;;;;;;;;;;;;;;;;5073357;28;19909;-67
2022/11/09 14:00:24;;;;;;;;;;;;;;;;;;5070353;28;20535;-67
2022/11/09 14:02:50;;;;;;;;;;;;;;;;;;5064323;28;19962;-67
2022/11/09 14:05:16;;;;;;;;;;;;;;;;;;5063509;28;19912;-66
2022/11/09 14:08:59;;;;;;;;;;;;;;;;;;5087338;27;19917;-66
2022/11/09 14:11:26;;;;;;;;;;;;;;;;;;5086965;28;19912;-67
2022/11/09 14:13:52;;;;;;;;;;;;;;;;;;5086578;28;19912;-66
2022/11/09 14:16:21;;;;;;;;;;;;;;;;;;5087362;28;19912;-67
2022/11/09 14:18:47;;;;;;;;;;;;;;;;;;5087818;28;19966;-66
2022/11/09 14:23:03;;;;;;;;;;;;;;;;;;5130295;27;20338;-69
2022/11/09 14:25:29;;;;;;;;;;;;;;;;;;5129476;28;20011;-66
2022/11/09 14:27:59;;;;;;;;;;;;;;;;;;5130091;27;19941;-67
2022/11/09 14:30:25;;;;;;;;;;;;;;;;;;5131837;27;19915;-67
2022/11/09 14:35:32;;;;;;;;;;;;;;;;;;5091293;27;19916;-66
2022/11/09 14:38:59;;;;;;;;;;;;;;;;;;5091028;27;19917;-67
2022/11/09 14:44:42;;;;;;;;;;;;;;;;;;5091393;27;19938;-66
2022/11/09 14:47:08;;;;;;;;;;;;;;;;;;5090811;28;19919;-66
2022/11/09 14:49:34;;;;;;;;;;;;;;;;;;5091273;28;19908;-66
2022/11/09 14:54:44;;;;;;;;;;;;;;;;;;5152356;27;20096;-66
2022/11/09 14:57:10;;;;;;;;;;;;;;;;;;5152866;27;20008;-66
2022/11/09 15:02:24;;;;;;;;;;;;;;;;;;5112389;27;19916;-66
2022/11/09 15:04:50;;;;;;;;;;;;;;;;;;5110421;28;20372;-66
2022/11/09 15:09:34;;;;;;;;;;;;;;;;;;5111663;27;19916;-67
2022/11/09 15:12:00;;;;;;;;;;;;;;;;;;5111616;28;20003;-66
2022/11/09 15:15:01;;;;;;;;;;;;;;;;;;5091007;27;20291;-66
2022/11/09 15:17:27;;;;;;;;;;;;;;;;;;5091384;28;19912;-66
2022/11/09 15:19:53;;;;;;;;;;;;;;;;;;5091107;28;19960;-68
2022/11/09 15:22:19;;;;;;;;;;;;;;;;;;5091009;28;19916;-68
2022/11/09 15:25:59;;;;;;;;;;;;;;;;;;5111658;27;19938;-66
2022/11/09 15:28:25;;;;;;;;;;;;;;;;;;5111739;28;19934;-67
2022/11/09 15:30:52;;;;;;;;;;;;;;;;;;5111681;28;20318;-67
2022/11/09 15:33:18;;;;;;;;;;;;;;;;;;5111517;28;19954;-68
2022/11/09 15:35:44;;;;;;;;;;;;;;;;;;5109858;28;19999;-67
2022/11/09 15:38:30;;;;;;;;;;;;;;;;;;5112085;27;19916;-68
2022/11/09 15:40:56;;;;;;;;;;;;;;;;;;5111723;28;19999;-68
2022/11/09 15:45:54;;;;;;;;;;;;;;;;;;5091521;27;19918;-67
2022/11/09 15:48:20;;;;;;;;;;;;;;;;;;5091267;28;20452;-67
2022/11/09 15:50:46;;;;;;;;;;;;;;;;;;5090866;28;19908;-67
2022/11/09 15:53:12;;;;;;;;;;;;;;;;;;5091121;28;19909;-67
2022/11/09 15:55:57;;;;;;;;;;;;;;;;;;5091272;27;19912;-68
2022/11/09 15:58:23;;;;;;;;;;;;;;;;;;5091390;28;20026;-68
2022/11/09 16:00:49;;;;;;;;;;;;;;;;;;5091182;28;19920;-67
2022/11/09 16:03:18;;;;;;;;;;;;;;;;;;5090846;28;19915;-68
2022/11/09 16:05:44;;;;;;;;;;;;;;;;;;5091242;28;19908;-68
2022/11/09 16:08:10;;;;;;;;;;;;;;;;;;5091124;28;19915;-67
2022/11/09 16:10:38;;;;;;;;;;;;;;;;;;5090639;28;20273;-68
2022/11/09 16:13:05;;;;;;;;;;;;;;;;;;5091090;28;19978;-67
2022/11/09 16:15:31;;;;;;;;;;;;;;;;;;5090894;28;19916;-67
2022/11/09 16:17:57;;;;;;;;;;;;;;;;;;5090583;28;19930;-66
2022/11/09 16:20:23;;;;;;;;;;;;;;;;;;5090973;28;19908;-67
2022/11/09 16:22:49;;;;;;;;;;;;;;;;;;5090838;28;19930;-67
2022/11/09 16:25:14;;;;;;;;;;;;;;;;;;5090218;28;19908;-68
2022/11/09 16:27:40;;;;;;;;;;;;;;;;;;5090488;28;20271;-68
2022/11/09 16:30:07;;;;;;;;;;;;;;;;;;5089334;28;19909;-68
2022/11/09 16:32:33;;;;;;;;;;;;;;;;;;5090375;28;19908;-68
2022/11/09 16:34:59;;;;;;;;;;;;;;;;;;5090570;28;19926;-68
2022/11/09 16:37:25;;;;;;;;;;;;;;;;;;5090695;28;20249;-68
2022/11/09 16:39:51;;;;;;;;;;;;;;;;;;5088823;28;19991;-68
2022/11/09 16:42:17;;;;;;;;;;;;;;;;;;5090500;28;20347;-68
2022/11/09 16:44:43;;;;;;;;;;;;;;;;;;5090405;28;19908;-67
2022/11/09 16:47:09;;;;;;;;;;;;;;;;;;5088495;28;19916;-68
2022/11/09 16:49:35;;;;;;;;;;;;;;;;;;5089031;28;19915;-67
2022/11/09 16:52:01;;;;;;;;;;;;;;;;;;5086017;28;19909;-68
2022/11/09 16:54:27;;;;;;;;;;;;;;;;;;5097583;28;19929;-68
2022/11/09 16:56:53;;;;;;;;;;;;;;;;;;5110466;28;19912;-68
2022/11/09 16:59:19;;;;;;;;;;;;;;;;;;5109779;28;19912;-68
2022/11/09 17:01:45;;;;;;;;;;;;;;;;;;5110273;28;20296;-68
2022/11/09 17:04:11;;;;;;;;;;;;;;;;;;5110435;28;19991;-67
2022/11/09 17:06:37;;;;;;;;;;;;;;;;;;5082066;28;19912;-67
2022/11/09 17:09:03;;;;;;;;;;;;;;;;;;5096520;28;19912;-67
2022/11/09 17:11:29;;;;;;;;;;;;;;;;;;5078334;28;19919;-67
2022/11/09 17:13:55;;;;;;;;;;;;;;;;;;5096410;28;19918;-68
2022/11/09 17:16:21;;;;;;;;;;;;;;;;;;5078356;28;19912;-67
2022/11/09 17:18:47;;;;;;;;;;;;;;;;;;5096530;28;19913;-68
2022/11/09 17:21:13;;;;;;;;;;;;;;;;;;5096318;28;19912;-67
2022/11/09 17:23:39;;;;;;;;;;;;;;;;;;5096467;28;19982;-67
2022/11/09 17:26:05;;;;;;;;;;;;;;;;;;5096584;28;19915;-67
2022/11/09 17:28:31;;;;;;;;;;;;;;;;;;5096053;28;20353;-67
2022/11/09 17:30:57;;;;;;;;;;;;;;;;;;5096266;28;19998;-67
2022/11/09 17:33:23;;;;;;;;;;;;;;;;;;5096282;28;19908;-67
2022/11/09 17:35:49;;;;;;;;;;;;;;;;;;5095801;28;19927;-67
2022/11/09 17:38:15;;;;;;;;;;;;;;;;;;5096151;28;20287;-67
2022/11/09 17:40:41;;;;;;;;;;;;;;;;;;5095922;28;20018;-67
2022/11/09 17:43:07;;;;;;;;;;;;;;;;;;5077469;28;19908;-67